Time;durP1;ratioP1;P1;durP2;ratioP2;P2;SDS_P1;SDS_P2;PMS_P1;PMS_P2;Temp;Humidity;BMP_temperature;BMP_pressure;BME280_temperature;BME280_humidity;BME280_pressure;Samples;Min_cycle;Max_cycle;Signal;HPM_P1;HPM_P2
2022/08/31 04:01:46;;;;;;;9.47;8.53;;;20.30;99.90;;;;;;5350150;23;20627;-63
2022/08/31 04:04:13;;;;;;;8.53;7.63;;;20.30;99.90;;;;;;4978571;28;20462;-62
2022/08/31 04:06:40;;;;;;;8.20;7.60;;;20.30;99.90;;;;;;4977215;28;20949;-63
2022/08/31 04:09:08;;;;;;;7.43;6.93;;;20.30;99.90;;;;;;4977235;28;20877;-63
2022/08/31 04:11:34;;;;;;;7.43;6.93;;;20.30;99.90;;;;;;4977462;28;20485;-62
2022/08/31 04:14:01;;;;;;;7.53;6.93;;;20.30;99.90;;;;;;4977320;28;20848;-64
2022/08/31 04:16:28;;;;;;;7.90;7.30;;;20.30;99.90;;;;;;4977404;28;20510;-63
2022/08/31 04:18:56;;;;;;;7.67;7.07;;;20.30;99.90;;;;;;4977241;28;20863;-63
2022/08/31 04:21:25;;;;;;;7.53;7.00;;;20.30;99.90;;;;;;4976972;28;20485;-63
2022/08/31 04:23:53;;;;;;;7.60;7.10;;;20.30;99.90;;;;;;4976285;28;20877;-63
2022/08/31 04:26:22;;;;;;;7.83;7.17;;;20.30;99.90;;;;;;4977184;28;21011;-63
2022/08/31 04:28:50;;;;;;;7.03;6.53;;;20.30;99.90;;;;;;4977388;28;20465;-63
2022/08/31 04:31:18;;;;;;;8.73;7.93;;;20.40;99.90;;;;;;4977146;28;20843;-63
2022/08/31 04:33:45;;;;;;;8.03;7.43;;;20.30;99.90;;;;;;4977211;28;20953;-63
2022/08/31 04:36:15;;;;;;;8.03;7.33;;;20.30;99.90;;;;;;4976672;28;20820;-63
2022/08/31 04:38:42;;;;;;;6.90;6.40;;;20.30;99.90;;;;;;4976970;28;20443;-64
2022/08/31 04:41:11;;;;;;;9.00;8.27;;;20.30;99.90;;;;;;4976754;28;20818;-63
2022/08/31 04:43:40;;;;;;;7.67;7.10;;;20.30;99.90;;;;;;4976902;28;20461;-63
2022/08/31 04:46:08;;;;;;;8.03;7.43;;;20.30;99.90;;;;;;4976908;28;20506;-63
2022/08/31 04:48:35;;;;;;;6.93;6.33;;;20.40;99.90;;;;;;4976746;28;20454;-63
2022/08/31 04:51:03;;;;;;;7.83;7.23;;;20.40;99.90;;;;;;4976714;28;20489;-64
2022/08/31 04:53:32;;;;;;;8.00;7.40;;;20.30;99.90;;;;;;4976862;28;20461;-63
2022/08/31 04:56:03;;;;;;;6.93;6.43;;;20.40;99.90;;;;;;4976819;28;20455;-63
2022/08/31 04:58:29;;;;;;;7.83;7.23;;;20.30;99.90;;;;;;4976456;28;20439;-63
2022/08/31 05:00:56;;;;;;;7.60;7.00;;;20.30;99.90;;;;;;4976251;28;20482;-63
2022/08/31 05:03:23;;;;;;;7.93;7.33;;;20.30;99.90;;;;;;4976439;28;20807;-63
2022/08/31 05:05:52;;;;;;;7.43;6.93;;;20.30;99.90;;;;;;4976152;28;20462;-63
2022/08/31 05:08:19;;;;;;;7.63;6.80;;;20.30;99.90;;;;;;4978585;28;20455;-62
2022/08/31 05:10:47;;;;;;;8.50;7.70;;;20.40;99.90;;;;;;4976525;28;21063;-63
2022/08/31 05:13:14;;;;;;;9.13;7.90;;;20.40;99.90;;;;;;4976850;28;20537;-62
2022/08/31 05:15:42;;;;;;;9.03;8.33;;;20.40;99.90;;;;;;4976729;28;20485;-62
2022/08/31 05:18:09;;;;;;;8.80;8.20;;;20.40;99.90;;;;;;4975988;28;20458;-63
2022/08/31 05:20:36;;;;;;;9.27;8.57;;;20.30;99.90;;;;;;4975798;28;20526;-62
2022/08/31 05:23:03;;;;;;;11.30;10.30;;;20.30;99.90;;;;;;4975827;28;20462;-62
2022/08/31 05:25:29;;;;;;;8.17;7.40;;;20.20;99.90;;;;;;4975547;28;20458;-62
2022/08/31 05:27:57;;;;;;;10.17;9.20;;;20.20;99.90;;;;;;4975831;28;20460;-62
2022/08/31 05:30:24;;;;;;;9.47;8.73;;;20.20;99.90;;;;;;4975574;28;20505;-62
2022/08/31 05:32:51;;;;;;;9.77;9.03;;;20.20;99.90;;;;;;4975658;28;20455;-62
2022/08/31 05:35:18;;;;;;;10.13;9.20;;;20.20;99.90;;;;;;4974830;28;20462;-62
2022/08/31 05:37:45;;;;;;;12.60;11.30;;;20.20;99.90;;;;;;4975522;28;20458;-62
2022/08/31 05:40:12;;;;;;;11.47;9.90;;;20.10;99.90;;;;;;4975478;28;20455;-62
2022/08/31 05:42:38;;;;;;;10.40;9.50;;;20.10;99.90;;;;;;4975449;28;20462;-62
2022/08/31 05:45:08;;;;;;;11.23;10.20;;;20.10;99.90;;;;;;4975198;28;20462;-62
2022/08/31 05:47:34;;;;;;;9.93;9.13;;;20.10;99.90;;;;;;4975408;28;20934;-62
2022/08/31 05:50:01;;;;;;;11.10;10.00;;;20.10;99.90;;;;;;4975430;28;20478;-62
2022/08/31 05:52:28;;;;;;;9.50;8.70;;;20.20;99.90;;;;;;4975327;28;20482;-62
2022/08/31 05:54:55;;;;;;;9.97;9.17;;;20.20;99.90;;;;;;4975416;28;20553;-62
2022/08/31 05:57:22;;;;;;;9.73;8.93;;;20.20;99.90;;;;;;4975372;28;20442;-62
2022/08/31 05:59:49;;;;;;;13.20;10.50;;;20.30;99.90;;;;;;4976639;28;20451;-62
2022/08/31 06:02:17;;;;;;;9.27;8.47;;;20.40;99.90;;;;;;4977199;28;21055;-62
2022/08/31 06:04:43;;;;;;;9.57;8.87;;;20.30;99.90;;;;;;4976586;28;20459;-62
2022/08/31 06:07:10;;;;;;;10.23;9.43;;;20.30;99.90;;;;;;4975267;28;20462;-62
2022/08/31 06:09:37;;;;;;;8.90;8.23;;;20.30;99.90;;;;;;4975090;28;20475;-62
2022/08/31 06:12:05;;;;;;;8.33;7.57;;;20.30;99.90;;;;;;4975069;28;20474;-62
2022/08/31 06:14:32;;;;;;;9.90;8.90;;;20.30;99.90;;;;;;4975190;28;20873;-62
2022/08/31 06:16:59;;;;;;;9.23;8.43;;;20.20;99.90;;;;;;4975071;28;20486;-61
2022/08/31 06:19:27;;;;;;;9.53;8.40;;;20.20;99.90;;;;;;4974675;28;20946;-62
2022/08/31 06:21:54;;;;;;;9.07;8.10;;;20.10;99.90;;;;;;4974635;28;20478;-62
2022/08/31 06:24:21;;;;;;;8.77;7.60;;;20.10;99.90;;;;;;4975470;28;20486;-62
2022/08/31 06:26:54;;;;;;;8.80;7.90;;;20.10;99.90;;;;;;4974832;28;20462;-62
2022/08/31 06:29:21;;;;;;;8.87;8.00;;;20.10;99.90;;;;;;4975173;28;20435;-62
2022/08/31 06:31:48;;;;;;;9.77;7.73;;;20.10;99.90;;;;;;4975055;28;20471;-62
2022/08/31 06:34:16;;;;;;;8.17;7.50;;;20.10;99.90;;;;;;4974867;28;20446;-62
2022/08/31 06:36:47;;;;;;;8.57;7.77;;;20.10;99.90;;;;;;4974802;28;20458;-62
2022/08/31 06:39:14;;;;;;;8.57;7.70;;;20.10;99.90;;;;;;4974741;28;20439;-62
2022/08/31 06:41:41;;;;;;;8.07;7.47;;;20.10;99.90;;;;;;4974517;28;20977;-62
2022/08/31 06:44:11;;;;;;;8.00;7.20;;;20.20;99.90;;;;;;4974285;28;20973;-62
2022/08/31 06:46:39;;;;;;;7.53;6.83;;;20.20;99.90;;;;;;4975011;28;20915;-62
2022/08/31 06:49:07;;;;;;;7.43;6.90;;;20.10;99.90;;;;;;4978654;28;20463;-62
2022/08/31 06:51:35;;;;;;;7.60;7.00;;;20.10;99.90;;;;;;4978338;28;20486;-62
2022/08/31 06:54:04;;;;;;;7.40;6.80;;;20.10;99.90;;;;;;4978290;28;20854;-61
2022/08/31 06:56:30;;;;;;;7.57;6.80;;;20.10;99.90;;;;;;4978242;28;20954;-61
2022/08/31 06:58:59;;;;;;;8.60;6.93;;;20.10;99.90;;;;;;4978446;28;20454;-61
2022/08/31 07:01:28;;;;;;;8.03;7.43;;;20.10;99.90;;;;;;4978197;28;20482;-61
2022/08/31 07:03:55;;;;;;;7.73;7.13;;;20.20;99.90;;;;;;4978246;28;20481;-61
2022/08/31 07:06:24;;;;;;;7.00;6.50;;;20.20;99.90;;;;;;4978016;28;20450;-60
2022/08/31 07:08:56;;;;;;;7.67;7.07;;;20.20;99.90;;;;;;4978310;28;20450;-61
2022/08/31 07:11:26;;;;;;;7.50;6.90;;;20.30;99.90;;;;;;4978159;28;20848;-62
2022/08/31 07:13:55;;;;;;;8.17;7.43;;;20.40;99.90;;;;;;4978303;28;20443;-65
2022/08/31 07:16:24;;;;;;;7.33;5.60;;;20.50;99.90;;;;;;4978681;28;20463;-64
2022/08/31 07:18:53;;;;;;;6.53;6.00;;;20.60;99.90;;;;;;4978067;28;20459;-65
2022/08/31 07:21:21;;;;;;;6.93;6.33;;;20.70;99.90;;;;;;4978013;28;20502;-67
2022/08/31 07:23:49;;;;;;;7.33;6.50;;;20.70;99.90;;;;;;4978639;28;20808;-72
2022/08/31 07:26:24;;;;;;;6.30;5.70;;;20.80;99.90;;;;;;4978200;28;20450;-72
2022/08/31 07:28:53;;;;;;;6.80;5.90;;;20.80;99.90;;;;;;4978068;28;20464;-62
2022/08/31 07:31:22;;;;;;;7.07;5.67;;;20.80;99.90;;;;;;4977836;28;20482;-62
2022/08/31 07:33:49;;;;;;;6.40;5.80;;;20.70;99.90;;;;;;4977905;28;20458;-62
2022/08/31 07:36:17;;;;;;;7.60;5.57;;;20.70;99.90;;;;;;4977836;28;20458;-62
2022/08/31 07:44:23;;;;;;;6.73;5.77;;;20.70;99.90;;;;;;4977634;28;21032;-62
2022/08/31 07:46:53;;;;;;;7.10;6.23;;;20.70;99.90;;;;;;4977216;28;20450;-62
2022/08/31 07:49:21;;;;;;;6.33;5.60;;;20.70;99.90;;;;;;4977884;28;20465;-62
2022/08/31 07:51:50;;;;;;;8.37;5.70;;;20.80;99.90;;;;;;4977453;28;20486;-63
2022/08/31 07:54:19;;;;;;;10.60;6.07;;;20.80;99.90;;;;;;4977375;28;20859;-63
2022/08/31 07:56:48;;;;;;;8.07;5.10;;;20.70;99.90;;;;;;4977342;28;20454;-63
2022/08/31 07:59:16;;;;;;;6.13;5.73;;;20.70;99.90;;;;;;4976316;28;20549;-65
2022/08/31 08:01:44;;;;;;;6.53;6.03;;;20.70;99.90;;;;;;4976973;28;21005;-63
2022/08/31 08:04:20;;;;;;;8.70;6.20;;;20.80;99.90;;;;;;4977296;28;20512;-63
2022/08/31 08:06:47;;;;;;;5.97;5.47;;;20.80;99.90;;;;;;4977275;28;20566;-62
2022/08/31 08:09:14;;;;;;;6.20;5.70;;;20.70;99.90;;;;;;4977204;28;20439;-64
2022/08/31 08:11:44;;;;;;;6.73;6.03;;;20.80;99.90;;;;;;4977062;28;20847;-64
2022/08/31 08:14:10;;;;;;;7.17;5.70;;;20.80;99.90;;;;;;4977412;28;20454;-64
2022/08/31 08:16:37;;;;;;;7.07;6.37;;;20.80;99.90;;;;;;4976650;28;20510;-66
2022/08/31 08:19:05;;;;;;;7.07;6.50;;;20.70;99.90;;;;;;4976928;28;20463;-64
2022/08/31 08:21:32;;;;;;;6.57;5.97;;;20.70;99.90;;;;;;4976494;28;20474;-64
2022/08/31 08:23:59;;;;;;;7.17;6.23;;;20.60;99.90;;;;;;4976976;28;20457;-64
2022/08/31 08:26:26;;;;;;;7.57;6.87;;;20.60;99.90;;;;;;4976879;28;20542;-63
2022/08/31 08:28:52;;;;;;;7.50;6.50;;;20.60;99.90;;;;;;4976836;28;20462;-63
2022/08/31 08:31:22;;;;;;;6.63;6.10;;;20.70;99.90;;;;;;4976359;28;20947;-63
2022/08/31 08:33:50;;;;;;;9.83;6.70;;;20.70;99.90;;;;;;4976709;28;20494;-63
2022/08/31 08:36:19;;;;;;;7.60;6.90;;;20.60;99.90;;;;;;4976517;28;20642;-63
2022/08/31 08:38:47;;;;;;;7.50;6.20;;;20.60;99.90;;;;;;4976319;28;20461;-62
2022/08/31 08:41:17;;;;;;;10.57;6.90;;;20.60;99.90;;;;;;4976307;28;20474;-62
2022/08/31 08:43:47;;;;;;;7.30;6.37;;;20.70;99.90;;;;;;4976556;28;20443;-62
2022/08/31 08:46:15;;;;;;;8.03;7.20;;;20.70;99.90;;;;;;4976874;28;20455;-62
2022/08/31 08:48:43;;;;;;;7.10;6.60;;;20.80;99.90;;;;;;4976437;28;20454;-62
2022/08/31 08:51:14;;;;;;;8.63;6.73;;;20.80;99.90;;;;;;4976570;28;20541;-62
2022/08/31 08:53:45;;;;;;;7.70;7.10;;;20.90;99.90;;;;;;4976311;28;20443;-62
2022/08/31 08:56:12;;;;;;;7.77;6.47;;;20.90;99.90;;;;;;4976717;28;20439;-62
2022/08/31 08:58:41;;;;;;;6.33;5.83;;;20.70;99.90;;;;;;4976362;28;20461;-63
2022/08/31 09:01:10;;;;;;;8.93;7.30;;;20.70;99.90;;;;;;4976022;28;20490;-63
2022/08/31 09:03:46;;;;;;;11.07;7.40;;;20.60;99.90;;;;;;4976190;28;20459;-63
2022/08/31 09:06:19;;;;;;;8.03;7.23;;;20.50;99.90;;;;;;4979415;28;20443;-62
2022/08/31 09:09:28;;;;;;;12.00;6.70;;;20.50;99.90;;;;;;4979169;28;20439;-63
2022/08/31 09:12:06;;;;;;;7.47;6.87;;;20.50;99.90;;;;;;4976170;28;20490;-63
2022/08/31 09:14:48;;;;;;;7.77;6.90;;;20.60;99.90;;;;;;4976229;28;20493;-63
2022/08/31 09:17:31;;;;;;;9.10;7.27;;;20.60;99.90;;;;;;4976088;28;20454;-62
2022/08/31 09:20:03;;;;;;;7.73;7.00;;;20.70;99.90;;;;;;4976273;28;20806;-63
2022/08/31 09:22:31;;;;;;;8.00;7.00;;;20.80;99.90;;;;;;4975873;28;20566;-63
2022/08/31 09:25:02;;;;;;;10.10;7.50;;;20.90;99.90;;;;;;4975959;28;20875;-62
2022/08/31 09:27:44;;;;;;;9.83;6.77;;;21.00;99.90;;;;;;4976039;28;20439;-62
2022/08/31 09:30:16;;;;;;;11.27;6.83;;;21.00;99.90;;;;;;4976019;28;20855;-63
2022/08/31 09:32:53;;;;;;;7.97;7.07;;;21.00;99.90;;;;;;4975761;28;20427;-63
2022/08/31 09:35:25;;;;;;;12.43;8.33;;;21.10;99.90;;;;;;4975982;28;20439;-62
2022/08/31 09:38:00;;;;;;;7.27;6.67;;;21.10;99.90;;;;;;4975568;28;20441;-62
2022/08/31 09:40:37;;;;;;;7.20;6.60;;;21.20;99.90;;;;;;4975638;28;20439;-63
2022/08/31 09:43:07;;;;;;;7.73;6.30;;;21.30;99.90;;;;;;4975548;28;20955;-63
2022/08/31 09:45:35;;;;;;;10.70;7.27;;;21.30;99.90;;;;;;4976482;28;20450;-63
2022/08/31 09:48:02;;;;;;;6.70;6.10;;;21.40;99.90;;;;;;4975607;28;20450;-63
2022/08/31 09:50:36;;;;;;;7.37;6.70;;;21.30;99.90;;;;;;4975395;28;20450;-63
2022/08/31 09:56:18;;;;;;;8.33;6.70;;;21.30;99.90;;;;;;4975674;28;20902;-64
2022/08/31 09:58:49;;;;;;;6.40;5.70;;;21.40;99.90;;;;;;4975503;28;20505;-63
2022/08/31 10:01:20;;;;;;;14.40;7.50;;;21.50;99.90;;;;;;4975210;28;20482;-63
2022/08/31 10:03:48;;;;;;;6.43;5.83;;;21.60;99.90;;;;;;4975499;28;20435;-63
2022/08/31 10:06:47;;;;;;;7.20;6.50;;;21.70;99.90;;;;;;4974943;28;20454;-64
2022/08/31 10:09:29;;;;;;;11.20;6.73;;;21.80;99.90;;;;;;4971517;28;20465;-64
2022/08/31 10:12:03;;;;;;;7.80;7.03;;;21.80;99.90;;;;;;4975956;28;20486;-64
2022/08/31 10:14:35;;;;;;;7.33;6.73;;;21.80;99.90;;;;;;4975407;28;20439;-63
2022/08/31 10:17:10;;;;;;;7.40;6.70;;;21.80;99.90;;;;;;4975228;28;20538;-64
2022/08/31 10:19:53;;;;;;;8.83;7.93;;;22.00;99.90;;;;;;4975148;28;20457;-64
2022/08/31 10:22:29;;;;;;;9.03;6.03;;;22.20;99.90;;;;;;4974607;28;20477;-64
2022/08/31 10:25:11;;;;;;;11.93;7.30;;;22.30;99.90;;;;;;4974990;28;20438;-64
2022/08/31 10:27:46;;;;;;;7.30;6.60;;;22.40;99.90;;;;;;4975247;28;20446;-64
2022/08/31 10:30:21;;;;;;;7.60;7.00;;;22.40;99.90;;;;;;4975108;28;20481;-62
2022/08/31 10:32:54;;;;;;;8.97;7.00;;;22.40;99.90;;;;;;4974699;28;20822;-64
2022/08/31 10:35:26;;;;;;;9.23;7.30;;;22.50;99.90;;;;;;4975993;28;20439;-62
2022/08/31 10:38:07;;;;;;;9.17;7.67;;;22.50;99.90;;;;;;4975117;28;20474;-66
2022/08/31 10:40:43;;;;;;;7.80;7.10;;;22.50;99.90;;;;;;4974397;28;21028;-62
2022/08/31 10:43:16;;;;;;;8.60;6.77;;;22.60;99.90;;;;;;4974824;28;20894;-64
2022/08/31 10:45:46;;;;;;;7.60;6.90;;;22.70;99.90;;;;;;4974244;28;20910;-63
2022/08/31 10:48:13;;;;;;;7.03;6.40;;;22.70;99.90;;;;;;4974711;28;20569;-63
2022/08/31 10:50:47;;;;;;;6.67;6.17;;;22.70;99.90;;;;;;4974203;28;20474;-64
2022/08/31 10:53:31;;;;;;;8.23;7.30;;;22.80;99.90;;;;;;4974344;28;20894;-64
2022/08/31 10:56:13;;;;;;;8.47;7.70;;;22.80;99.90;;;;;;4974544;28;20552;-64
2022/08/31 10:58:49;;;;;;;8.60;7.80;;;22.70;99.90;;;;;;4974670;28;20530;-64
2022/08/31 11:01:20;;;;;;;8.10;7.37;;;22.60;99.90;;;;;;4974289;28;20505;-63
2022/08/31 11:04:12;;;;;;;7.17;6.50;;;22.60;99.90;;;;;;4975324;28;20446;-63
2022/08/31 11:06:47;;;;;;;10.63;7.10;;;22.50;99.90;;;;;;4974612;28;20450;-63
2022/08/31 11:09:19;;;;;;;10.77;7.50;;;22.30;99.90;;;;;;4974843;28;20788;-63
2022/08/31 11:11:48;;;;;;;8.43;7.73;;;22.20;99.90;;;;;;4974138;28;20993;-63
2022/08/31 11:14:43;;;;;;;7.43;6.50;;;22.30;99.90;;;;;;4974613;28;20462;-63
2022/08/31 11:17:31;;;;;;;10.70;8.03;;;22.10;99.90;;;;;;4974543;28;20530;-63
2022/08/31 11:20:18;;;;;;;8.83;7.87;;;22.10;99.90;;;;;;4974392;28;20450;-64
2022/08/31 11:23:05;;;;;;;7.70;7.10;;;22.00;99.90;;;;;;4974536;28;20904;-62
2022/08/31 11:26:06;;;;;;;8.47;7.63;;;22.00;99.90;;;;;;4974087;28;20969;-62
2022/08/31 11:28:37;;;;;;;6.93;6.40;;;22.00;99.90;;;;;;4974395;28;20493;-61
2022/08/31 11:31:22;;;;;;;9.00;8.23;;;22.00;99.90;;;;;;4974409;28;20889;-62
2022/08/31 11:33:56;;;;;;;7.83;7.13;;;21.90;99.90;;;;;;4975029;28;20466;-66
2022/08/31 11:36:48;;;;;;;7.77;7.07;;;21.90;99.90;;;;;;4977910;28;20494;-67
2022/08/31 11:39:34;;;;;;;8.40;7.70;;;21.80;99.90;;;;;;4977941;28;20497;-66
2022/08/31 11:42:02;;;;;;;10.77;7.80;;;21.80;99.90;;;;;;4977904;28;20506;-66
2022/08/31 11:45:01;;;;;;;9.57;8.60;;;21.70;99.90;;;;;;4977802;28;20477;-66
2022/08/31 11:47:37;;;;;;;9.00;8.20;;;21.50;99.90;;;;;;4977797;28;20454;-66
2022/08/31 11:50:11;;;;;;;8.33;7.70;;;21.60;99.90;;;;;;4977862;28;20446;-67
2022/08/31 11:52:41;;;;;;;8.30;7.60;;;21.60;99.90;;;;;;4977498;28;20897;-66
2022/08/31 11:55:18;;;;;;;9.07;8.17;;;21.60;99.90;;;;;;4977654;28;20443;-66
2022/08/31 11:58:14;;;;;;;10.23;9.30;;;21.60;99.90;;;;;;4977193;28;20442;-67
2022/08/31 12:00:43;;;;;;;8.47;7.87;;;21.60;99.90;;;;;;4977445;28;20486;-66
2022/08/31 12:03:30;;;;;;;8.47;7.70;;;21.70;99.90;;;;;;4977387;28;20455;-66
2022/08/31 12:05:57;;;;;;;11.27;8.80;;;21.70;99.90;;;;;;4977550;28;20443;-66
2022/08/31 12:08:27;;;;;;;8.73;7.93;;;21.80;99.90;;;;;;4977374;28;20454;-67
2022/08/31 12:10:59;;;;;;;8.73;8.03;;;21.80;99.90;;;;;;4979472;28;20474;-66
2022/08/31 12:13:40;;;;;;;8.07;7.30;;;21.80;99.90;;;;;;4979196;28;20470;-66
2022/08/31 12:16:36;;;;;;;8.50;7.90;;;22.00;99.90;;;;;;4977807;28;20439;-68
2022/08/31 12:25:45;;;;;;;8.27;7.57;;;22.50;99.90;;;;;;4977246;28;20454;-68
2022/08/31 12:28:19;;;;;;;7.93;7.13;;;22.70;99.90;;;;;;4977181;28;20438;-66
2022/08/31 12:30:51;;;;;;;8.60;7.87;;;23.00;99.90;;;;;;4977268;28;20541;-66
2022/08/31 12:33:20;;;;;;;10.90;7.20;;;23.20;99.90;;;;;;4976952;28;20546;-66
2022/08/31 12:35:48;;;;;;;8.40;7.63;;;23.30;99.90;;;;;;4977073;28;20443;-67
2022/08/31 12:38:19;;;;;;;8.07;7.30;;;23.40;99.90;;;;;;4976912;28;20505;-67
2022/08/31 12:40:49;;;;;;;12.40;7.47;;;23.50;99.90;;;;;;4977018;28;20479;-65
2022/08/31 12:43:19;;;;;;;8.13;7.33;;;23.70;99.90;;;;;;4977182;28;20457;-66
2022/08/31 12:46:13;;;;;;;7.83;7.20;;;24.00;99.90;;;;;;4976339;28;20458;-65
2022/08/31 12:48:58;;;;;;;8.47;7.50;;;24.30;99.90;;;;;;4976815;28;20443;-64
2022/08/31 12:51:38;;;;;;;7.10;6.57;;;24.60;99.90;;;;;;4977015;28;20478;-66
2022/08/31 12:54:45;;;;;;;8.03;7.23;;;24.90;99.90;;;;;;4976363;28;20442;-64
2022/08/31 12:57:28;;;;;;;8.40;7.70;;;25.40;99.90;;;;;;4935544;29;20460;-65
2022/08/31 13:00:07;;;;;;;8.07;7.27;;;25.80;99.90;;;;;;4970984;28;20458;-65
2022/08/31 13:02:39;;;;;;;7.43;6.87;;;26.30;99.90;;;;;;4975868;28;20569;-64
2022/08/31 13:05:19;;;;;;;7.67;6.80;;;26.60;99.90;;;;;;4976081;28;20918;-64
2022/08/31 13:07:47;;;;;;;8.27;7.47;;;27.00;99.90;;;;;;4976373;28;20450;-64
2022/08/31 13:10:24;;;;;;;7.60;6.90;;;27.20;99.90;;;;;;4976559;28;20442;-64
2022/08/31 13:12:53;;;;;;;7.83;7.13;;;27.40;99.80;;;;;;4976486;28;20820;-64
2022/08/31 13:15:26;;;;;;;8.43;7.60;;;27.40;99.90;;;;;;4976301;28;20454;-63
2022/08/31 13:17:53;;;;;;;8.20;7.50;;;27.50;98.80;;;;;;4976007;28;20445;-64
2022/08/31 13:20:24;;;;;;;10.27;7.20;;;27.40;98.30;;;;;;4975719;28;20458;-64
2022/08/31 13:22:57;;;;;;;9.73;6.80;;;27.30;97.60;;;;;;4975955;28;20447;-64
2022/08/31 13:25:34;;;;;;;7.17;6.47;;;27.50;96.90;;;;;;4975615;28;20443;-64
2022/08/31 13:28:06;;;;;;;7.50;6.80;;;27.50;96.90;;;;;;4975670;28;20470;-65
2022/08/31 13:30:37;;;;;;;7.00;6.30;;;27.60;96.90;;;;;;4975684;28;20439;-64
2022/08/31 13:33:20;;;;;;;8.90;6.70;;;27.40;96.40;;;;;;4975510;28;20553;-64
2022/08/31 13:35:49;;;;;;;8.10;7.37;;;27.50;97.20;;;;;;4975669;28;20443;-64
2022/08/31 13:38:18;;;;;;;7.90;7.30;;;27.20;95.50;;;;;;4975555;28;20459;-64
2022/08/31 13:40:51;;;;;;;7.30;6.57;;;27.30;94.70;;;;;;4975246;28;20902;-64
2022/08/31 13:43:26;;;;;;;6.90;6.30;;;27.40;94.80;;;;;;4975867;28;20450;-64
2022/08/31 13:45:56;;;;;;;5.83;5.37;;;27.60;93.50;;;;;;4975359;28;20446;-64
2022/08/31 13:48:29;;;;;;;5.80;5.40;;;27.50;94.50;;;;;;4975435;28;20443;-64
2022/08/31 13:51:02;;;;;;;6.13;5.43;;;27.70;95.60;;;;;;4975595;28;20821;-64
2022/08/31 13:53:39;;;;;;;7.87;6.00;;;27.80;93.10;;;;;;4974992;28;20961;-64
2022/08/31 13:59:23;;;;;;;6.30;5.80;;;27.60;92.70;;;;;;4975064;28;20426;-64
2022/08/31 14:01:52;;;;;;;6.57;5.90;;;27.30;93.30;;;;;;4974869;28;20482;-65
2022/08/31 14:04:42;;;;;;;6.90;6.20;;;27.30;93.20;;;;;;4975336;28;20450;-65
2022/08/31 14:07:15;;;;;;;6.50;5.97;;;27.20;92.20;;;;;;4975183;28;20439;-65
2022/08/31 14:09:44;;;;;;;6.57;5.97;;;27.00;93.40;;;;;;4975589;28;20489;-65
2022/08/31 14:12:33;;;;;;;6.93;6.30;;;27.00;93.60;;;;;;4975870;28;20494;-65
2022/08/31 14:15:08;;;;;;;6.67;6.07;;;27.10;93.40;;;;;;4975238;28;20442;-64
2022/08/31 14:17:36;;;;;;;7.10;6.47;;;27.20;93.00;;;;;;4975036;28;20442;-64
2022/08/31 14:20:34;;;;;;;6.27;5.83;;;27.30;92.60;;;;;;4974715;28;20461;-64
2022/08/31 14:23:31;;;;;;;6.23;5.70;;;27.50;92.90;;;;;;4975069;28;20928;-65
2022/08/31 14:26:00;;;;;;;6.07;5.57;;;27.70;92.30;;;;;;4974905;28;20439;-65
2022/08/31 14:28:39;;;;;;;6.90;5.90;;;27.90;91.60;;;;;;4974934;28;20457;-64
2022/08/31 14:31:20;;;;;;;6.63;6.13;;;27.70;90.30;;;;;;4974579;28;20841;-64
2022/08/31 14:33:50;;;;;;;6.40;6.00;;;27.60;91.10;;;;;;4974942;28;20477;-63
2022/08/31 14:36:18;;;;;;;6.67;5.30;;;27.80;91.80;;;;;;4975159;28;20868;-64
2022/08/31 14:38:47;;;;;;;6.13;5.53;;;27.90;90.80;;;;;;4974751;28;20454;-64
2022/08/31 14:41:18;;;;;;;6.00;5.50;;;28.10;91.00;;;;;;4974702;28;20478;-64
2022/08/31 14:43:47;;;;;;;6.13;5.60;;;28.20;88.60;;;;;;4974854;28;20439;-65
2022/08/31 14:46:23;;;;;;;6.90;5.90;;;28.20;90.40;;;;;;4974720;28;20454;-65
2022/08/31 14:48:50;;;;;;;7.93;6.20;;;28.00;87.50;;;;;;4975345;28;20438;-65
2022/08/31 14:51:17;;;;;;;5.63;5.23;;;27.80;88.70;;;;;;4974821;28;20839;-65
2022/08/31 14:53:43;;;;;;;7.03;5.57;;;27.60;88.90;;;;;;4974671;28;20485;-65
2022/08/31 14:56:16;;;;;;;6.40;5.90;;;27.40;90.10;;;;;;4974221;28;20817;-65
2022/08/31 14:58:43;;;;;;;6.63;5.97;;;27.10;89.60;;;;;;4974715;28;20493;-65
2022/08/31 15:01:12;;;;;;;6.07;5.67;;;26.90;90.10;;;;;;4974321;28;20483;-65
2022/08/31 15:03:40;;;;;;;5.70;5.30;;;26.70;91.40;;;;;;4974741;28;20547;-65
2022/08/31 15:06:07;;;;;;;5.70;5.20;;;26.50;91.00;;;;;;4974819;28;20492;-65
2022/08/31 15:08:34;;;;;;;6.50;6.00;;;26.40;91.00;;;;;;4976531;28;20461;-64
2022/08/31 15:11:04;;;;;;;7.17;5.30;;;26.30;92.00;;;;;;4978177;28;20470;-65
2022/08/31 15:13:32;;;;;;;6.73;6.17;;;26.10;92.70;;;;;;4978796;28;20521;-64
2022/08/31 15:16:03;;;;;;;7.73;6.57;;;25.80;93.40;;;;;;4979554;28;20480;-64
2022/08/31 15:18:32;;;;;;;8.03;6.93;;;25.80;94.10;;;;;;4980289;28;20439;-64
2022/08/31 15:21:01;;;;;;;7.10;6.27;;;25.70;94.70;;;;;;4979845;28;20561;-64
2022/08/31 15:23:28;;;;;;;6.07;5.67;;;25.60;95.20;;;;;;4978652;28;20498;-64
2022/08/31 15:26:05;;;;;;;6.30;5.80;;;25.40;95.80;;;;;;4977936;28;20806;-64
2022/08/31 15:28:36;;;;;;;7.63;6.10;;;25.30;96.10;;;;;;4978433;28;20534;-64
2022/08/31 15:31:07;;;;;;;6.20;5.70;;;25.10;96.90;;;;;;4977950;28;20470;-64
2022/08/31 15:33:38;;;;;;;9.00;6.20;;;25.10;97.60;;;;;;4977748;28;20977;-64
2022/08/31 15:36:08;;;;;;;6.90;6.30;;;25.00;98.10;;;;;;4978098;28;20498;-64
2022/08/31 15:38:37;;;;;;;7.30;6.60;;;25.00;98.40;;;;;;4978046;28;20442;-64
2022/08/31 15:41:05;;;;;;;6.73;5.63;;;24.90;99.30;;;;;;4977922;28;20485;-63
2022/08/31 15:43:32;;;;;;;7.43;6.83;;;24.90;99.90;;;;;;4978231;28;20810;-64
2022/08/31 15:46:00;;;;;;;9.07;6.97;;;25.00;99.90;;;;;;4978470;28;20521;-64
2022/08/31 15:48:44;;;;;;;7.50;6.63;;;25.10;99.90;;;;;;4978044;28;20509;-64
2022/08/31 15:51:19;;;;;;;6.37;5.77;;;25.10;99.90;;;;;;4977986;28;20475;-64
2022/08/31 15:53:49;;;;;;;7.27;6.60;;;25.20;99.90;;;;;;4977473;28;20466;-64
2022/08/31 15:56:17;;;;;;;7.57;7.00;;;25.20;99.90;;;;;;4977519;28;20455;-64
2022/08/31 15:58:52;;;;;;;8.23;7.30;;;25.10;99.90;;;;;;4977712;28;20465;-64
2022/08/31 16:01:22;;;;;;;7.53;6.83;;;25.00;99.90;;;;;;4977029;28;20486;-64
2022/08/31 16:03:51;;;;;;;11.30;8.00;;;24.90;99.90;;;;;;4977218;28;20949;-64
2022/08/31 16:06:21;;;;;;;8.60;7.90;;;24.80;99.90;;;;;;4977360;28;20496;-64
2022/08/31 16:08:50;;;;;;;8.70;7.80;;;24.60;99.90;;;;;;4977335;28;20450;-64
2022/08/31 16:11:17;;;;;;;9.40;8.50;;;24.50;99.90;;;;;;4977210;28;20549;-64
2022/08/31 16:13:50;;;;;;;9.90;9.10;;;24.40;99.90;;;;;;4977560;28;20482;-64
2022/08/31 16:16:19;;;;;;;8.60;7.90;;;24.30;99.90;;;;;;4977484;28;20829;-64
2022/08/31 16:18:47;;;;;;;11.30;10.20;;;24.10;99.90;;;;;;4977125;28;20498;-65
2022/08/31 16:21:18;;;;;;;12.07;10.70;;;23.80;99.90;;;;;;4976356;28;20565;-64
2022/08/31 16:23:47;;;;;;;11.20;10.30;;;23.70;99.90;;;;;;4977216;28;20498;-64
2022/08/31 16:26:13;;;;;;;10.73;9.27;;;23.50;99.90;;;;;;4977041;28;20463;-64
2022/08/31 16:28:41;;;;;;;10.30;9.50;;;23.40;99.90;;;;;;4976870;28;20447;-65
2022/08/31 16:31:11;;;;;;;9.60;8.80;;;23.30;99.90;;;;;;4976812;28;20481;-64
2022/08/31 16:33:40;;;;;;;9.40;8.33;;;23.30;99.90;;;;;;4976675;28;20459;-65
2022/08/31 16:36:08;;;;;;;10.50;9.70;;;23.30;99.90;;;;;;4976840;28;20463;-65
2022/08/31 16:38:34;;;;;;;10.60;9.83;;;23.30;99.90;;;;;;4976718;28;20482;-65
2022/08/31 16:41:03;;;;;;;11.03;9.87;;;23.20;99.90;;;;;;4976824;28;20479;-64
2022/08/31 16:43:30;;;;;;;9.37;8.57;;;23.20;99.90;;;;;;4976561;28;21008;-64
2022/08/31 16:45:58;;;;;;;9.67;8.77;;;23.20;99.90;;;;;;4976726;28;20466;-64
2022/08/31 16:51:13;;;;;;;9.47;8.60;;;23.20;99.90;;;;;;4976166;28;20972;-65
2022/08/31 16:53:46;;;;;;;10.30;8.03;;;23.20;99.90;;;;;;4976042;28;20805;-64
2022/08/31 16:56:15;;;;;;;9.30;8.40;;;23.10;99.90;;;;;;4976591;28;20443;-64
2022/08/31 16:58:43;;;;;;;8.30;7.60;;;23.10;99.90;;;;;;4976302;28;20486;-64
2022/08/31 17:01:12;;;;;;;8.70;7.90;;;23.10;99.90;;;;;;4975784;28;20565;-64
2022/08/31 17:03:40;;;;;;;10.97;8.73;;;23.10;99.90;;;;;;4976184;28;20459;-64
2022/08/31 17:06:08;;;;;;;9.73;8.97;;;23.10;99.90;;;;;;4976223;28;20477;-65
2022/08/31 17:08:40;;;;;;;9.27;8.47;;;23.10;99.90;;;;;;4976066;28;20465;-64
2022/08/31 17:11:13;;;;;;;9.20;8.40;;;23.10;99.90;;;;;;4976188;28;20480;-64
2022/08/31 17:13:46;;;;;;;8.67;7.90;;;23.00;99.90;;;;;;4976125;28;20459;-64
2022/08/31 17:16:15;;;;;;;9.80;8.90;;;23.00;99.90;;;;;;4976102;28;20439;-65
2022/08/31 17:18:43;;;;;;;8.97;8.30;;;22.90;99.90;;;;;;4976181;28;20486;-64
2022/08/31 17:21:16;;;;;;;9.50;8.67;;;22.90;99.90;;;;;;4976059;28;20478;-64
2022/08/31 17:23:46;;;;;;;10.10;9.13;;;22.80;99.90;;;;;;4975866;28;20466;-65
2022/08/31 17:26:14;;;;;;;9.80;8.90;;;22.70;99.90;;;;;;4975763;28;20450;-65
2022/08/31 17:28:41;;;;;;;9.90;9.10;;;22.70;99.90;;;;;;4975897;28;20847;-64
2022/08/31 17:31:08;;;;;;;9.77;8.87;;;22.60;99.90;;;;;;4976473;28;20486;-65